Time;durP1;ratioP1;P1;durP2;ratioP2;P2;SDS_P1;SDS_P2;PMS_P1;PMS_P2;Temp;Humidity;BMP_temperature;BMP_pressure;BME280_temperature;BME280_humidity;BME280_pressure;Samples;Min_cycle;Max_cycle;Signal;HPM_P1;HPM_P2
2023/11/03 00:00:07;;;;;;;9.50;8.60;;;;;;;;;;5113288;28;20441;-59
2023/11/03 00:02:34;;;;;;;9.47;8.57;;;;;;;;;;5111740;28;20568;-60
2023/11/03 00:05:04;;;;;;;8.17;7.47;;;;;;;;;;5112931;28;20883;-59
2023/11/03 00:07:32;;;;;;;8.17;7.50;;;;;;;;;;5114078;28;20446;-59
2023/11/03 00:10:00;;;;;;;9.00;8.30;;;;;;;;;;5116466;28;20502;-60
2023/11/03 00:12:27;;;;;;;9.43;8.53;;;;;;;;;;5116660;28;20473;-59
2023/11/03 00:14:54;;;;;;;8.70;8.00;;;;;;;;;;5116594;28;20876;-59
2023/11/03 00:17:21;;;;;;;9.40;8.40;;;;;;;;;;5116464;28;20541;-60
2023/11/03 00:19:48;;;;;;;8.10;7.50;;;;;;;;;;5116373;28;20437;-59
2023/11/03 00:22:15;;;;;;;7.83;7.13;;;;;;;;;;5116170;28;20607;-60
2023/11/03 00:24:42;;;;;;;9.27;8.47;;;;;;;;;;5116102;28;20996;-59
2023/11/03 00:27:10;;;;;;;6.90;6.40;;;;;;;;;;5116372;28;20441;-60
2023/11/03 00:29:37;;;;;;;8.23;7.43;;;;;;;;;;5116298;28;20532;-59
2023/11/03 00:32:06;;;;;;;8.73;7.90;;;;;;;;;;5116083;28;20526;-60
2023/11/03 00:34:33;;;;;;;8.07;7.37;;;;;;;;;;5115962;28;21020;-60
2023/11/03 00:37:00;;;;;;;8.17;7.47;;;;;;;;;;5115937;28;20450;-60
2023/11/03 00:39:28;;;;;;;8.03;7.27;;;;;;;;;;5116149;28;20442;-60
2023/11/03 00:41:55;;;;;;;8.17;7.50;;;;;;;;;;5116161;28;20473;-60
2023/11/03 00:44:25;;;;;;;7.90;7.20;;;;;;;;;;5115919;28;20552;-59
2023/11/03 00:46:52;;;;;;;8.00;7.40;;;;;;;;;;5115736;28;20448;-59
2023/11/03 00:49:19;;;;;;;8.30;7.50;;;;;;;;;;5115749;28;20529;-60
2023/11/03 00:51:46;;;;;;;8.83;7.90;;;;;;;;;;5115540;28;20457;-59
2023/11/03 00:54:14;;;;;;;8.00;7.30;;;;;;;;;;5115900;28;20499;-60
2023/11/03 00:56:41;;;;;;;8.47;7.83;;;;;;;;;;5115735;28;20441;-59
2023/11/03 00:59:08;;;;;;;7.80;7.17;;;;;;;;;;5115668;28;20441;-59
2023/11/03 01:01:38;;;;;;;8.20;7.60;;;;;;;;;;5115471;28;20857;-60
2023/11/03 01:04:06;;;;;;;7.97;7.37;;;;;;;;;;5115467;28;20441;-60
2023/11/03 01:06:33;;;;;;;8.00;7.30;;;;;;;;;;5115604;28;20445;-59
2023/11/03 01:08:59;;;;;;;7.17;6.47;;;;;;;;;;5115545;28;20528;-60
2023/11/03 01:11:27;;;;;;;7.50;6.90;;;;;;;;;;5115375;28;20800;-60
2023/11/03 01:13:56;;;;;;;7.37;6.87;;;;;;;;;;5115322;28;20448;-60
2023/11/03 01:16:23;;;;;;;7.10;6.60;;;;;;;;;;5115242;28;20796;-60
2023/11/03 01:18:51;;;;;;;7.30;6.70;;;;;;;;;;5114763;28;20446;-59
2023/11/03 01:21:18;;;;;;;7.70;7.00;;;;;;;;;;5115340;28;20438;-59
2023/11/03 01:23:47;;;;;;;8.50;7.80;;;;;;;;;;5115203;28;21064;-60
2023/11/03 01:26:14;;;;;;;8.37;7.77;;;;;;;;;;5115389;28;20448;-59
2023/11/03 01:28:41;;;;;;;7.87;7.20;;;;;;;;;;5115023;28;20444;-60
2023/11/03 01:31:09;;;;;;;7.80;7.20;;;;;;;;;;5114854;28;20532;-60
2023/11/03 01:33:37;;;;;;;7.30;6.57;;;;;;;;;;5115369;28;20867;-60
2023/11/03 01:36:06;;;;;;;8.53;7.37;;;;;;;;;;5115037;28;20541;-60
2023/11/03 01:38:34;;;;;;;10.47;7.30;;;;;;;;;;5114882;28;20441;-60
2023/11/03 01:41:01;;;;;;;8.57;7.87;;;;;;;;;;5114859;28;20477;-60
2023/11/03 01:43:28;;;;;;;8.27;7.57;;;;;;;;;;5114374;28;20564;-60
2023/11/03 01:45:56;;;;;;;8.60;7.90;;;;;;;;;;5114585;28;20446;-59
2023/11/03 01:48:23;;;;;;;8.63;7.20;;;;;;;;;;5114747;28;20442;-60
2023/11/03 01:50:50;;;;;;;8.57;7.87;;;;;;;;;;5114521;28;20966;-60
2023/11/03 01:53:19;;;;;;;8.07;7.23;;;;;;;;;;5114428;28;20999;-60
2023/11/03 01:55:46;;;;;;;9.30;8.40;;;;;;;;;;5114498;28;20947;-59
2023/11/03 01:58:15;;;;;;;9.17;8.20;;;;;;;;;;5114603;28;20952;-60
2023/11/03 02:00:42;;;;;;;10.30;9.30;;;;;;;;;;5114602;28;20936;-59
2023/11/03 02:03:09;;;;;;;7.47;6.83;;;;;;;;;;5114342;28;20477;-60
2023/11/03 02:05:36;;;;;;;8.50;7.60;;;;;;;;;;5114416;28;20450;-59
2023/11/03 02:08:03;;;;;;;8.57;7.83;;;;;;;;;;5114292;28;20438;-60
2023/11/03 02:10:32;;;;;;;7.57;6.87;;;;;;;;;;5114290;28;20528;-60
2023/11/03 02:13:00;;;;;;;8.00;7.30;;;;;;;;;;5114077;28;20437;-59
2023/11/03 02:15:27;;;;;;;7.87;7.30;;;;;;;;;;5114318;28;20442;-60
2023/11/03 02:17:54;;;;;;;7.63;7.00;;;;;;;;;;5114139;28;20441;-60
2023/11/03 02:20:21;;;;;;;8.60;7.90;;;;;;;;;;5113966;28;20937;-60
2023/11/03 02:22:54;;;;;;;9.20;8.30;;;;;;;;;;5113937;28;20473;-60
2023/11/03 02:25:21;;;;;;;8.53;7.87;;;;;;;;;;5113890;28;20936;-60
2023/11/03 02:27:49;;;;;;;8.13;7.43;;;;;;;;;;5114081;28;20529;-60
2023/11/03 02:30:16;;;;;;;9.70;8.90;;;;;;;;;;5113041;28;20434;-60
2023/11/03 02:32:43;;;;;;;9.63;8.77;;;;;;;;;;5113874;28;20544;-60
2023/11/03 02:35:11;;;;;;;8.23;7.53;;;;;;;;;;5113799;28;20840;-60
2023/11/03 02:37:38;;;;;;;8.53;7.83;;;;;;;;;;5113700;28;20445;-60
2023/11/03 02:40:07;;;;;;;7.77;7.17;;;;;;;;;;5113608;28;20786;-60
2023/11/03 02:42:34;;;;;;;7.60;6.97;;;;;;;;;;5113690;28;20478;-60
2023/11/03 02:45:02;;;;;;;7.80;7.20;;;;;;;;;;5113477;28;20478;-59
2023/11/03 02:47:29;;;;;;;8.00;7.30;;;;;;;;;;5113494;28;20944;-60
2023/11/03 02:49:56;;;;;;;7.50;6.87;;;;;;;;;;5113661;28;20446;-60
2023/11/03 02:52:23;;;;;;;7.70;7.10;;;;;;;;;;5113374;28;20451;-60
2023/11/03 02:54:50;;;;;;;8.83;7.97;;;;;;;;;;5113703;28;20552;-59
2023/11/03 02:57:18;;;;;;;7.90;7.20;;;;;;;;;;5113687;28;20448;-60
2023/11/03 02:59:45;;;;;;;7.97;7.33;;;;;;;;;;5113581;28;20532;-60
2023/11/03 03:02:12;;;;;;;7.30;6.70;;;;;;;;;;5113671;28;20447;-59
2023/11/03 03:04:39;;;;;;;6.97;6.47;;;;;;;;;;5113498;28;20562;-59
2023/11/03 03:07:06;;;;;;;7.33;6.63;;;;;;;;;;5113335;28;20467;-60
2023/11/03 03:09:33;;;;;;;7.50;6.80;;;;;;;;;;5113464;28;20442;-60
2023/11/03 03:12:00;;;;;;;7.60;6.90;;;;;;;;;;5113424;28;20770;-59
2023/11/03 03:14:28;;;;;;;8.37;7.73;;;;;;;;;;5113269;28;20933;-60
2023/11/03 03:16:55;;;;;;;8.97;8.13;;;;;;;;;;5113308;28;20526;-60
2023/11/03 03:19:22;;;;;;;7.93;7.33;;;;;;;;;;5113193;28;20955;-59
2023/11/03 03:21:49;;;;;;;7.30;6.70;;;;;;;;;;5113020;28;20903;-59
2023/11/03 03:24:16;;;;;;;7.10;6.50;;;;;;;;;;5113344;28;20572;-59
2023/11/03 03:26:43;;;;;;;7.83;6.50;;;;;;;;;;5113380;28;20870;-59
2023/11/03 03:29:10;;;;;;;8.10;7.40;;;;;;;;;;5113263;28;20448;-60
2023/11/03 03:31:38;;;;;;;7.87;7.07;;;;;;;;;;5113157;28;20532;-60
2023/11/03 03:34:05;;;;;;;7.50;6.87;;;;;;;;;;5113287;28;20442;-60
2023/11/03 03:36:32;;;;;;;9.93;6.67;;;;;;;;;;5113326;28;20533;-59
2023/11/03 03:38:59;;;;;;;7.30;6.60;;;;;;;;;;5113287;28;20528;-60
2023/11/03 03:41:26;;;;;;;7.60;6.90;;;;;;;;;;5114208;28;20538;-60
2023/11/03 03:43:53;;;;;;;7.20;6.60;;;;;;;;;;5116925;28;20580;-60
2023/11/03 03:46:21;;;;;;;7.93;7.20;;;;;;;;;;5117075;28;20446;-60
2023/11/03 03:48:50;;;;;;;7.30;6.70;;;;;;;;;;5117017;28;20441;-59
2023/11/03 03:51:17;;;;;;;7.40;6.70;;;;;;;;;;5117087;28;20469;-59
2023/11/03 03:53:44;;;;;;;7.20;6.60;;;;;;;;;;5116842;28;20513;-60
2023/11/03 03:56:10;;;;;;;7.37;6.67;;;;;;;;;;5116969;28;20790;-59
2023/11/03 03:58:39;;;;;;;7.37;6.40;;;;;;;;;;5116902;28;20544;-59
2023/11/03 04:01:06;;;;;;;6.10;5.60;;;;;;;;;;5116637;28;20442;-59
2023/11/03 04:03:33;;;;;;;7.20;6.47;;;;;;;;;;5117013;28;20489;-60
2023/11/03 04:06:03;;;;;;;8.73;7.93;;;;;;;;;;5116816;28;20528;-59
2023/11/03 04:08:30;;;;;;;6.97;6.37;;;;;;;;;;5116725;28;20479;-59
2023/11/03 04:10:57;;;;;;;8.53;7.70;;;;;;;;;;5116617;28;20469;-59
2023/11/03 04:13:24;;;;;;;6.90;6.30;;;;;;;;;;5116467;28;20469;-59
2023/11/03 04:15:52;;;;;;;7.10;6.53;;;;;;;;;;5116361;28;20524;-59
2023/11/03 04:18:19;;;;;;;6.97;6.37;;;;;;;;;;5116370;28;20441;-60
2023/11/03 04:20:46;;;;;;;7.57;6.97;;;;;;;;;;5116430;28;20536;-60
2023/11/03 04:23:14;;;;;;;7.57;6.97;;;;;;;;;;5116277;28;20487;-60
2023/11/03 04:25:41;;;;;;;6.83;6.27;;;;;;;;;;5116343;28;20868;-60
2023/11/03 04:28:08;;;;;;;6.37;5.77;;;;;;;;;;5116101;28;20449;-59
2023/11/03 04:30:35;;;;;;;9.93;6.00;;;;;;;;;;5116090;28;20441;-60
2023/11/03 04:33:02;;;;;;;8.30;6.30;;;;;;;;;;5116211;28;20528;-60
2023/11/03 04:35:29;;;;;;;6.70;6.20;;;;;;;;;;5116010;28;20955;-59
2023/11/03 04:37:56;;;;;;;6.97;5.83;;;;;;;;;;5115951;28;20941;-59
2023/11/03 04:40:25;;;;;;;6.23;5.73;;;;;;;;;;5116023;28;20449;-60
2023/11/03 04:42:52;;;;;;;6.10;5.60;;;;;;;;;;5115813;28;20907;-59
2023/11/03 04:45:19;;;;;;;7.23;5.97;;;;;;;;;;5115758;28;20880;-59
2023/11/03 04:47:46;;;;;;;6.27;5.70;;;;;;;;;;5115955;28;20445;-60
2023/11/03 04:50:13;;;;;;;6.43;5.93;;;;;;;;;;5115696;28;20510;-59
2023/11/03 04:52:40;;;;;;;6.87;6.17;;;;;;;;;;5115176;28;20809;-59
2023/11/03 04:55:08;;;;;;;6.43;5.90;;;;;;;;;;5115588;28;20537;-60
2023/11/03 04:57:36;;;;;;;6.93;5.70;;;;;;;;;;5115572;28;20438;-59
2023/11/03 05:00:08;;;;;;;5.47;5.07;;;;;;;;;;5115778;28;20486;-59
2023/11/03 05:02:35;;;;;;;4.67;4.37;;;;;;;;;;5115566;28;20545;-59
2023/11/03 05:05:04;;;;;;;5.90;5.40;;;;;;;;;;5115556;28;20442;-59
2023/11/03 05:07:31;;;;;;;5.17;4.67;;;;;;;;;;5115728;28;20442;-58
2023/11/03 05:09:58;;;;;;;5.23;4.40;;;;;;;;;;5115576;28;20441;-58
2023/11/03 05:12:25;;;;;;;5.20;4.00;;;;;;;;;;5115487;28;20503;-58
2023/11/03 05:14:53;;;;;;;4.50;3.53;;;;;;;;;;5115370;28;20533;-58
2023/11/03 05:17:21;;;;;;;6.83;4.13;;;;;;;;;;5115412;28;20448;-58
2023/11/03 05:19:50;;;;;;;4.40;4.00;;;;;;;;;;5115233;28;20464;-58
2023/11/03 05:22:17;;;;;;;3.70;3.50;;;;;;;;;;5115039;28;20853;-58
2023/11/03 05:24:45;;;;;;;3.57;3.37;;;;;;;;;;5114884;28;20991;-58
2023/11/03 05:27:13;;;;;;;4.03;3.63;;;;;;;;;;5115335;27;20838;-58
2023/11/03 05:29:40;;;;;;;7.27;3.83;;;;;;;;;;5115132;28;20468;-58
2023/11/03 05:32:09;;;;;;;6.77;3.90;;;;;;;;;;5114944;28;20447;-58
2023/11/03 05:34:36;;;;;;;4.43;3.40;;;;;;;;;;5114883;28;20518;-59
2023/11/03 05:37:03;;;;;;;5.30;3.80;;;;;;;;;;5114727;28;20445;-58
2023/11/03 05:39:30;;;;;;;5.93;3.70;;;;;;;;;;5114998;28;20950;-58
2023/11/03 05:41:57;;;;;;;3.93;3.63;;;;;;;;;;5114784;28;20948;-59
2023/11/03 05:44:45;;;;;;;3.17;2.97;;;;;;;;;;5114771;28;21028;-62
2023/11/03 05:47:13;;;;;;;3.53;3.23;;;;;;;;;;5114712;28;20529;-58
2023/11/03 05:49:40;;;;;;;4.37;3.00;;;;;;;;;;5114616;28;20529;-58
2023/11/03 05:52:07;;;;;;;3.00;2.80;;;;;;;;;;5114843;28;20545;-58
2023/11/03 05:54:34;;;;;;;2.97;2.67;;;;;;;;;;5114626;28;20472;-58
2023/11/03 05:57:01;;;;;;;3.60;3.30;;;;;;;;;;5114682;28;20442;-58
2023/11/03 05:59:29;;;;;;;3.20;3.00;;;;;;;;;;5114649;28;20846;-58
2023/11/03 06:01:56;;;;;;;3.13;2.93;;;;;;;;;;5114247;28;20446;-58
2023/11/03 06:04:25;;;;;;;2.70;2.50;;;;;;;;;;5113497;28;20488;-58
2023/11/03 06:06:52;;;;;;;17.40;10.17;;;;;;;;;;5114527;28;20498;-59
2023/11/03 06:09:19;;;;;;;3.67;3.37;;;;;;;;;;5114381;28;20446;-59
2023/11/03 06:11:46;;;;;;;2.73;2.53;;;;;;;;;;5114191;28;20532;-59
2023/11/03 06:14:13;;;;;;;2.90;2.23;;;;;;;;;;5114204;28;20880;-59
2023/11/03 06:16:40;;;;;;;3.40;3.10;;;;;;;;;;5114154;28;20477;-59
2023/11/03 06:19:07;;;;;;;2.87;2.67;;;;;;;;;;5114308;28;20813;-59
2023/11/03 06:21:36;;;;;;;3.33;2.80;;;;;;;;;;5114053;28;20448;-59
2023/11/03 06:24:02;;;;;;;3.20;2.90;;;;;;;;;;5113998;28;20485;-59
2023/11/03 06:26:29;;;;;;;3.67;3.07;;;;;;;;;;5113827;28;21003;-59
2023/11/03 06:28:56;;;;;;;3.00;2.80;;;;;;;;;;5113634;28;20441;-59
2023/11/03 06:31:23;;;;;;;3.47;3.17;;;;;;;;;;5113460;28;20916;-59
2023/11/03 06:33:50;;;;;;;3.10;2.90;;;;;;;;;;5113721;28;20898;-58
2023/11/03 06:36:17;;;;;;;2.67;2.47;;;;;;;;;;5113570;28;20453;-59
2023/11/03 06:38:46;;;;;;;2.80;2.60;;;;;;;;;;5113545;28;20503;-59
2023/11/03 06:41:13;;;;;;;2.60;2.40;;;;;;;;;;5113558;28;20453;-59
2023/11/03 06:43:41;;;;;;;4.33;2.73;;;;;;;;;;5113340;28;20469;-59
2023/11/03 06:46:09;;;;;;;4.73;2.70;;;;;;;;;;5113711;28;20448;-60
2023/11/03 06:48:36;;;;;;;2.40;2.20;;;;;;;;;;5113446;28;20960;-59
2023/11/03 06:51:09;;;;;;;4.03;3.17;;;;;;;;;;5113526;28;20499;-60
2023/11/03 06:53:36;;;;;;;2.67;2.47;;;;;;;;;;5113569;28;20453;-59
2023/11/03 06:56:05;;;;;;;6.03;2.60;;;;;;;;;;5113357;28;20450;-59
2023/11/03 06:58:33;;;;;;;2.70;2.43;;;;;;;;;;5113447;28;20468;-59
2023/11/03 07:01:00;;;;;;;3.03;2.70;;;;;;;;;;5113482;28;20453;-59
2023/11/03 07:03:27;;;;;;;2.60;2.40;;;;;;;;;;5113355;28;20442;-58
2023/11/03 07:05:54;;;;;;;2.87;2.57;;;;;;;;;;5113348;28;20855;-59
2023/11/03 07:08:21;;;;;;;2.90;2.70;;;;;;;;;;5113291;28;20449;-59
2023/11/03 07:10:48;;;;;;;2.10;1.90;;;;;;;;;;5113213;28;20442;-59
2023/11/03 07:13:16;;;;;;;2.57;2.07;;;;;;;;;;5113677;28;20538;-59
2023/11/03 07:15:43;;;;;;;2.30;2.00;;;;;;;;;;5113357;28;20441;-59
2023/11/03 07:18:11;;;;;;;4.30;2.10;;;;;;;;;;5117588;28;20445;-59
2023/11/03 07:20:38;;;;;;;6.33;1.60;;;;;;;;;;5117500;28;20446;-59
2023/11/03 07:23:07;;;;;;;5.97;2.00;;;;;;;;;;5117416;28;20809;-59
2023/11/03 07:25:34;;;;;;;4.87;1.77;;;;;;;;;;5117120;28;20511;-59
2023/11/03 07:28:01;;;;;;;3.80;1.70;;;;;;;;;;5117549;28;20484;-59
2023/11/03 07:30:29;;;;;;;3.70;2.30;;;;;;;;;;5117395;28;20477;-59
2023/11/03 07:32:57;;;;;;;2.87;2.27;;;;;;;;;;5117253;28;20490;-59
2023/11/03 07:35:24;;;;;;;2.17;2.07;;;;;;;;;;5117064;28;20449;-59
2023/11/03 07:37:51;;;;;;;2.83;2.47;;;;;;;;;;5116864;28;20469;-59
2023/11/03 07:40:18;;;;;;;3.70;2.90;;;;;;;;;;5116915;28;20445;-59
2023/11/03 07:42:45;;;;;;;2.60;2.37;;;;;;;;;;5116955;28;20442;-59
2023/11/03 07:45:13;;;;;;;2.40;2.00;;;;;;;;;;5116191;28;20975;-59
2023/11/03 07:47:42;;;;;;;2.87;2.27;;;;;;;;;;5116971;28;20447;-59
2023/11/03 07:50:10;;;;;;;4.77;3.33;;;;;;;;;;5116901;28;21038;-58
2023/11/03 07:52:37;;;;;;;3.87;2.50;;;;;;;;;;5116585;28;20979;-58
2023/11/03 07:55:05;;;;;;;6.23;3.17;;;;;;;;;;5116885;28;20442;-59
2023/11/03 07:57:32;;;;;;;2.40;2.00;;;;;;;;;;5116796;28;20899;-59
2023/11/03 08:00:09;;;;;;;2.40;2.20;;;;;;;;;;5116640;28;20599;-59
2023/11/03 08:02:37;;;;;;;3.00;1.90;;;;;;;;;;5116425;28;20442;-59
2023/11/03 08:05:06;;;;;;;2.60;2.27;;;;;;;;;;5116265;28;20477;-59
2023/11/03 08:07:33;;;;;;;2.90;1.93;;;;;;;;;;5116558;28;20524;-60
2023/11/03 08:10:01;;;;;;;3.27;1.80;;;;;;;;;;5114952;28;20456;-60
2023/11/03 08:12:28;;;;;;;3.00;2.33;;;;;;;;;;5115332;28;20800;-59
2023/11/03 08:14:55;;;;;;;4.10;2.60;;;;;;;;;;5116348;28;20441;-60
2023/11/03 08:17:23;;;;;;;5.50;3.20;;;;;;;;;;5116096;28;20899;-59
2023/11/03 08:19:50;;;;;;;2.93;1.93;;;;;;;;;;5115554;28;20441;-62
2023/11/03 08:22:19;;;;;;;4.20;1.70;;;;;;;;;;5116153;28;20438;-59
2023/11/03 08:24:46;;;;;;;2.70;2.10;;;;;;;;;;5116155;28;20477;-63
2023/11/03 08:27:14;;;;;;;3.67;2.40;;;;;;;;;;5115647;28;20441;-60
2023/11/03 08:29:41;;;;;;;3.03;2.60;;;;;;;;;;5115436;28;20492;-60
2023/11/03 08:32:10;;;;;;;5.50;1.90;;;;;;;;;;5116061;28;20526;-61
2023/11/03 08:34:37;;;;;;;4.03;1.60;;;;;;;;;;5116155;28;20449;-61
2023/11/03 08:37:04;;;;;;;4.63;2.20;;;;;;;;;;5116008;28;20498;-61
2023/11/03 08:39:32;;;;;;;4.30;1.93;;;;;;;;;;5115848;28;20834;-61
2023/11/03 08:42:01;;;;;;;4.53;2.33;;;;;;;;;;5115418;28;20442;-61
2023/11/03 08:44:28;;;;;;;2.40;2.20;;;;;;;;;;5115462;28;20504;-61
2023/11/03 08:46:55;;;;;;;3.97;2.27;;;;;;;;;;5115864;28;20507;-60
2023/11/03 08:49:23;;;;;;;2.50;2.20;;;;;;;;;;5115789;27;20476;-60
2023/11/03 08:51:50;;;;;;;5.03;1.87;;;;;;;;;;5115720;28;20449;-60
2023/11/03 08:54:17;;;;;;;2.17;1.87;;;;;;;;;;5115459;28;20461;-61
2023/11/03 08:56:46;;;;;;;2.13;1.93;;;;;;;;;;5115512;28;20442;-59
2023/11/03 08:59:13;;;;;;;3.30;2.00;;;;;;;;;;5115342;28;20449;-60
2023/11/03 09:01:43;;;;;;;5.30;1.80;;;;;;;;;;5115416;28;20446;-62
2023/11/03 09:04:11;;;;;;;3.10;1.80;;;;;;;;;;5115330;28;20972;-61
2023/11/03 09:06:38;;;;;;;2.07;1.60;;;;;;;;;;5115468;28;20446;-62
2023/11/03 09:09:06;;;;;;;2.30;1.67;;;;;;;;;;5115259;28;20445;-66
2023/11/03 09:11:33;;;;;;;2.17;1.43;;;;;;;;;;5115259;28;20458;-60
2023/11/03 09:14:06;;;;;;;3.80;1.60;;;;;;;;;;5115177;28;20442;-61
2023/11/03 09:16:33;;;;;;;3.43;1.63;;;;;;;;;;5115141;28;20536;-60
2023/11/03 09:19:00;;;;;;;3.67;2.03;;;;;;;;;;5115075;28;20921;-61
2023/11/03 09:21:27;;;;;;;2.90;2.07;;;;;;;;;;5115033;28;20504;-60
2023/11/03 09:23:53;;;;;;;4.83;2.00;;;;;;;;;;5114810;28;20532;-61
2023/11/03 09:26:21;;;;;;;2.37;1.30;;;;;;;;;;5114805;28;20478;-61
2023/11/03 09:28:49;;;;;;;2.80;1.60;;;;;;;;;;5115247;28;20537;-62
2023/11/03 09:31:17;;;;;;;1.80;1.63;;;;;;;;;;5114772;28;20445;-61
2023/11/03 09:33:45;;;;;;;3.50;1.73;;;;;;;;;;5114982;28;20529;-59
2023/11/03 09:36:14;;;;;;;3.67;2.00;;;;;;;;;;5114947;28;20469;-61
2023/11/03 09:38:42;;;;;;;2.33;2.13;;;;;;;;;;5114435;28;20437;-60
2023/11/03 09:41:12;;;;;;;3.70;2.40;;;;;;;;;;5114756;28;20442;-61
2023/11/03 09:43:41;;;;;;;2.27;1.93;;;;;;;;;;5114440;28;20488;-62
2023/11/03 09:46:08;;;;;;;8.07;1.73;;;;;;;;;;5114492;28;20580;-63
2023/11/03 09:48:37;;;;;;;2.70;1.67;;;;;;;;;;5114485;28;20473;-61
2023/11/03 09:51:06;;;;;;;1.87;1.57;;;;;;;;;;5114404;28;20511;-61
2023/11/03 09:53:35;;;;;;;5.17;1.50;;;;;;;;;;5114234;28;20503;-63
2023/11/03 09:56:03;;;;;;;1.60;1.50;;;;;;;;;;5114141;28;20883;-60
2023/11/03 09:58:31;;;;;;;5.10;1.23;;;;;;;;;;5114481;28;20757;-61
2023/11/03 10:01:00;;;;;;;2.13;1.33;;;;;;;;;;5113909;28;20960;-61
2023/11/03 10:03:27;;;;;;;2.00;1.27;;;;;;;;;;5113741;28;20442;-61
2023/11/03 10:05:57;;;;;;;6.83;2.30;;;;;;;;;;5113927;28;20480;-63
2023/11/03 10:08:24;;;;;;;4.20;2.00;;;;;;;;;;5114272;28;20525;-62
2023/11/03 10:10:51;;;;;;;2.83;2.13;;;;;;;;;;5114135;28;20537;-62
2023/11/03 10:13:20;;;;;;;3.53;2.20;;;;;;;;;;5114110;28;20445;-62
2023/11/03 10:15:47;;;;;;;2.50;1.30;;;;;;;;;;5113979;28;20463;-61
2023/11/03 10:18:14;;;;;;;4.57;1.53;;;;;;;;;;5113874;28;20477;-61
2023/11/03 10:20:41;;;;;;;2.37;1.40;;;;;;;;;;5113836;28;20454;-61
2023/11/03 10:23:10;;;;;;;4.00;2.17;;;;;;;;;;5113765;28;20445;-62
2023/11/03 10:25:37;;;;;;;4.20;1.50;;;;;;;;;;5113748;28;20564;-62
2023/11/03 10:28:04;;;;;;;3.30;1.73;;;;;;;;;;5113743;28;20445;-62
2023/11/03 10:30:31;;;;;;;9.00;1.90;;;;;;;;;;5114010;28;20442;-62
2023/11/03 10:32:58;;;;;;;3.40;1.50;;;;;;;;;;5113708;28;20445;-62
2023/11/03 10:35:27;;;;;;;1.37;1.17;;;;;;;;;;5113953;28;20560;-62
2023/11/03 10:37:54;;;;;;;2.97;1.20;;;;;;;;;;5113715;28;20528;-61
2023/11/03 10:40:23;;;;;;;3.20;1.30;;;;;;;;;;5113571;28;20457;-60
2023/11/03 10:42:51;;;;;;;3.20;1.70;;;;;;;;;;5113378;28;20847;-61
2023/11/03 10:45:20;;;;;;;3.37;1.33;;;;;;;;;;5113068;28;20486;-61
2023/11/03 10:47:54;;;;;;;5.10;1.27;;;;;;;;;;5113659;28;20442;-62
2023/11/03 10:50:22;;;;;;;5.80;1.43;;;;;;;;;;5113410;28;20449;-60
2023/11/03 10:52:53;;;;;;;3.83;1.60;;;;;;;;;;5113075;28;20535;-60
2023/11/03 10:55:25;;;;;;;2.97;1.40;;;;;;;;;;5113374;28;20452;-61
2023/11/03 10:57:54;;;;;;;5.00;1.60;;;;;;;;;;5113045;28;20448;-61
2023/11/03 11:00:22;;;;;;;3.80;1.13;;;;;;;;;;5113446;28;20549;-61
2023/11/03 11:02:54;;;;;;;5.83;1.90;;;;;;;;;;5113242;28;20549;-60
2023/11/03 11:05:24;;;;;;;3.60;1.30;;;;;;;;;;5113120;28;20481;-60
2023/11/03 11:07:55;;;;;;;4.50;1.50;;;;;;;;;;5113157;28;20438;-60
2023/11/03 11:10:34;;;;;;;2.30;1.37;;;;;;;;;;5113090;28;20519;-60
2023/11/03 11:13:04;;;;;;;1.70;1.23;;;;;;;;;;5112993;28;21026;-61
2023/11/03 11:15:31;;;;;;;3.47;1.10;;;;;;;;;;5113297;28;20486;-63
2023/11/03 11:18:04;;;;;;;4.10;1.30;;;;;;;;;;5113411;28;20528;-63
2023/11/03 11:20:32;;;;;;;7.60;1.93;;;;;;;;;;5113242;28;20529;-63
2023/11/03 11:23:00;;;;;;;2.47;1.50;;;;;;;;;;5112838;28;20936;-63
2023/11/03 11:25:28;;;;;;;1.63;1.50;;;;;;;;;;5113253;28;20488;-63
2023/11/03 11:27:55;;;;;;;4.40;1.70;;;;;;;;;;5113015;28;20958;-64
2023/11/03 11:30:24;;;;;;;3.80;1.40;;;;;;;;;;5113039;28;20442;-62
2023/11/03 11:32:51;;;;;;;3.87;0.97;;;;;;;;;;5112874;28;20924;-61
2023/11/03 11:35:19;;;;;;;4.30;1.30;;;;;;;;;;5112877;28;20449;-61
2023/11/03 11:37:46;;;;;;;4.17;1.53;;;;;;;;;;5112902;28;20442;-60
2023/11/03 11:40:13;;;;;;;5.80;1.50;;;;;;;;;;5112882;28;20513;-61
2023/11/03 11:42:42;;;;;;;1.53;1.43;;;;;;;;;;5112919;28;20491;-60
2023/11/03 11:45:10;;;;;;;5.53;1.60;;;;;;;;;;5112829;28;20487;-61
2023/11/03 11:47:43;;;;;;;3.23;1.47;;;;;;;;;;5112741;28;20525;-61
2023/11/03 11:50:11;;;;;;;5.60;1.70;;;;;;;;;;5112143;28;20451;-61
2023/11/03 11:52:40;;;;;;;4.43;1.33;;;;;;;;;;5112710;28;20983;-61
2023/11/03 11:55:09;;;;;;;3.70;1.70;;;;;;;;;;5108907;28;20979;-61
2023/11/03 11:57:40;;;;;;;5.17;1.50;;;;;;;;;;5110500;28;20446;-61
2023/11/03 12:00:10;;;;;;;3.93;1.67;;;;;;;;;;5107904;28;20442;-61
2023/11/03 12:02:39;;;;;;;3.33;1.20;;;;;;;;;;5111176;28;20495;-61
2023/11/03 12:05:06;;;;;;;3.50;1.83;;;;;;;;;;5115847;28;20929;-61
2023/11/03 12:07:34;;;;;;;1.27;1.00;;;;;;;;;;5115586;28;20562;-60
2023/11/03 12:10:01;;;;;;;2.47;1.53;;;;;;;;;;5115839;28;20510;-61
2023/11/03 12:12:29;;;;;;;4.73;1.47;;;;;;;;;;5116019;28;20464;-61
2023/11/03 12:14:57;;;;;;;3.80;1.77;;;;;;;;;;5116047;28;20437;-61
2023/11/03 12:17:24;;;;;;;1.77;1.40;;;;;;;;;;5116588;28;20472;-60
2023/11/03 12:19:53;;;;;;;2.13;1.10;;;;;;;;;;5116106;28;20520;-60
2023/11/03 12:22:20;;;;;;;4.13;1.33;;;;;;;;;;5116062;28;20438;-60
2023/11/03 12:24:48;;;;;;;2.47;1.20;;;;;;;;;;5116303;28;21020;-61
2023/11/03 12:27:16;;;;;;;4.13;1.63;;;;;;;;;;5116055;28;20526;-60
2023/11/03 12:29:43;;;;;;;3.30;1.70;;;;;;;;;;5116037;28;20502;-60
2023/11/03 12:32:11;;;;;;;2.80;2.23;;;;;;;;;;5116102;28;20441;-60
2023/11/03 12:34:38;;;;;;;7.90;1.83;;;;;;;;;;5116069;28;20533;-60
2023/11/03 12:37:07;;;;;;;3.80;2.73;;;;;;;;;;5116119;28;20944;-60
2023/11/03 12:39:47;;;;;;;4.10;1.97;;;;;;;;;;5115950;28;20808;-60
2023/11/03 12:42:14;;;;;;;4.20;1.97;;;;;;;;;;5115737;28;20474;-60
2023/11/03 12:44:51;;;;;;;6.63;3.10;;;;;;;;;;5115696;28;20590;-61
2023/11/03 12:47:38;;;;;;;2.70;1.33;;;;;;;;;;5115746;28;20554;-60
2023/11/03 12:50:13;;;;;;;3.80;1.83;;;;;;;;;;5115731;28;20473;-60
2023/11/03 12:52:41;;;;;;;3.67;1.23;;;;;;;;;;5115536;28;20838;-60
2023/11/03 12:55:09;;;;;;;5.33;1.87;;;;;;;;;;5115929;28;20541;-60
2023/11/03 12:57:36;;;;;;;4.17;1.43;;;;;;;;;;5115695;28;20450;-60
2023/11/03 13:00:07;;;;;;;5.30;1.53;;;;;;;;;;5115690;28;20481;-60
2023/11/03 13:02:34;;;;;;;8.07;1.63;;;;;;;;;;5115530;28;20446;-60
2023/11/03 13:05:04;;;;;;;3.17;1.53;;;;;;;;;;5115518;28;20449;-60
2023/11/03 13:07:31;;;;;;;5.70;1.27;;;;;;;;;;5115572;28;20516;-60
2023/11/03 13:09:59;;;;;;;1.63;1.43;;;;;;;;;;5115520;28;20534;-60
2023/11/03 13:12:26;;;;;;;4.70;1.40;;;;;;;;;;5115385;28;20489;-60
2023/11/03 13:14:53;;;;;;;3.67;1.40;;;;;;;;;;5114666;28;20437;-60
2023/11/03 13:17:20;;;;;;;3.87;1.80;;;;;;;;;;5115232;28;20483;-61
2023/11/03 13:19:47;;;;;;;3.03;1.40;;;;;;;;;;5115181;28;20534;-60
2023/11/03 13:22:15;;;;;;;1.77;1.30;;;;;;;;;;5115081;28;20986;-60
2023/11/03 13:24:44;;;;;;;4.50;1.50;;;;;;;;;;5115201;28;20850;-61
2023/11/03 13:27:12;;;;;;;3.70;1.37;;;;;;;;;;5115136;28;20489;-60
2023/11/03 13:29:41;;;;;;;5.13;1.37;;;;;;;;;;5115164;28;20877;-60
2023/11/03 13:32:11;;;;;;;2.90;1.30;;;;;;;;;;5114901;28;20448;-61
2023/11/03 13:34:39;;;;;;;4.63;2.13;;;;;;;;;;5115189;28;20529;-60
2023/11/03 13:37:07;;;;;;;1.47;1.20;;;;;;;;;;5115124;28;20457;-60
2023/11/03 13:39:34;;;;;;;5.10;2.20;;;;;;;;;;5115005;28;20858;-60
2023/11/03 13:42:01;;;;;;;4.03;1.50;;;;;;;;;;5114735;28;20881;-60
2023/11/03 13:44:29;;;;;;;2.67;1.30;;;;;;;;;;5114603;28;20517;-60
2023/11/03 13:46:56;;;;;;;5.87;1.63;;;;;;;;;;5114838;28;20534;-60
2023/11/03 13:49:25;;;;;;;9.20;1.50;;;;;;;;;;5114733;28;20863;-61
2023/11/03 13:51:52;;;;;;;2.30;1.73;;;;;;;;;;5114585;28;20456;-61
2023/11/03 13:54:20;;;;;;;3.33;1.10;;;;;;;;;;5114579;28;20441;-60
2023/11/03 13:56:47;;;;;;;2.77;1.40;;;;;;;;;;5114396;28;20446;-61
2023/11/03 13:59:14;;;;;;;1.70;1.10;;;;;;;;;;5114252;28;20484;-60
2023/11/03 14:01:43;;;;;;;4.30;1.40;;;;;;;;;;5114461;28;20478;-60
2023/11/03 14:04:10;;;;;;;2.70;1.30;;;;;;;;;;5114484;28;20875;-60
2023/11/03 14:06:37;;;;;;;2.80;1.33;;;;;;;;;;5114189;28;20484;-60
2023/11/03 14:09:05;;;;;;;2.07;1.97;;;;;;;;;;5114245;28;20801;-60
2023/11/03 14:11:37;;;;;;;7.73;1.30;;;;;;;;;;5114024;28;20450;-61
2023/11/03 14:14:04;;;;;;;5.00;1.70;;;;;;;;;;5114365;28;20445;-60
2023/11/03 14:16:31;;;;;;;4.47;1.20;;;;;;;;;;5114262;28;20448;-60
2023/11/03 14:19:00;;;;;;;6.00;1.53;;;;;;;;;;5114124;28;20480;-60
2023/11/03 14:21:27;;;;;;;4.50;1.63;;;;;;;;;;5113913;28;20477;-60
2023/11/03 14:23:55;;;;;;;1.83;1.10;;;;;;;;;;5113917;28;20589;-60
2023/11/03 14:26:23;;;;;;;1.80;1.30;;;;;;;;;;5112832;28;20477;-60
2023/11/03 14:28:50;;;;;;;2.00;1.80;;;;;;;;;;5113759;28;20521;-61
2023/11/03 14:31:17;;;;;;;2.40;1.90;;;;;;;;;;5113678;28;20458;-61
2023/11/03 14:33:45;;;;;;;2.73;1.70;;;;;;;;;;5113966;28;20880;-60
2023/11/03 14:36:14;;;;;;;4.50;1.67;;;;;;;;;;5113796;28;20952;-60
2023/11/03 14:38:42;;;;;;;4.07;1.30;;;;;;;;;;5113686;28;20445;-61
2023/11/03 14:41:09;;;;;;;2.60;1.50;;;;;;;;;;5113591;28;20925;-60
2023/11/03 14:43:37;;;;;;;3.33;1.70;;;;;;;;;;5113578;28;20572;-61
2023/11/03 14:46:05;;;;;;;3.47;1.40;;;;;;;;;;5113888;28;20469;-60